Albion, Rhode Island
Current Conditions -  °F | °C
As of 3:55 AM on Monday 24 Nov 2014 (Local Time) from KSFZ Reporting Station
Overcast Overcast  
Wind Chill: 45°   Ceiling: 2600
Heat Index: 48°   Visibility: 3mi
Dew Point: 43°   Wind: 8mph
Humidity: 82%   Direction: 130°SE
Pressure: 29.96"   Gusts: NA
Location:  41.95°N, 71.45°W
Report Text: KSFZ 240855Z 13007KT 3SM FEW005 BKN026 OVC035 09/06 A2996 RMK AO1 57030
Loading
Personal Weather Stations






























Interactive Weather Map New forecast layout! Learn more

10-Day Weather Forecast

Advertisements
Track Severe Weather on mobile